Time;durP1;ratioP1;P1;durP2;ratioP2;P2;SDS_P1;SDS_P2;PMS_P1;PMS_P2;Temp;Humidity;BMP_temperature;BMP_pressure;BME280_temperature;BME280_humidity;BME280_pressure;Samples;Min_cycle;Max_cycle;Signal;HPM_P1;HPM_P2
2023/06/02 00:03:36;;;;;;;3.85;2.10;;;;;;;13.41;50.77;100122.09;10531382;28;20051;-60
2023/06/02 00:08:40;;;;;;;4.55;2.50;;;;;;;13.51;50.32;100123.19;10534869;28;20667;-60
2023/06/02 00:13:42;;;;;;;3.30;2.03;;;;;;;13.42;50.41;100123.78;10549987;27;20055;-60
2023/06/02 00:18:44;;;;;;;4.13;2.00;;;;;;;13.22;50.73;100117.25;10550522;27;20085;-60
2023/06/02 00:23:46;;;;;;;4.25;2.03;;;;;;;12.92;51.27;100119.31;10551775;28;20043;-60
2023/06/02 00:28:48;;;;;;;3.60;2.22;;;;;;;12.77;51.50;100121.16;10550626;27;20055;-60
2023/06/02 00:33:50;;;;;;;4.43;2.58;;;;;;;12.62;51.97;100116.91;10549546;28;20611;-60
2023/06/02 00:38:52;;;;;;;3.28;2.10;;;;;;;12.59;52.10;100122.38;10526731;28;20499;-60
2023/06/02 00:43:54;;;;;;;4.68;2.42;;;;;;;12.43;52.23;100124.31;10533564;27;20062;-60
2023/06/02 00:48:56;;;;;;;3.20;2.20;;;;;;;12.40;52.48;100116.63;10549116;28;20045;-60
2023/06/02 00:53:58;;;;;;;4.45;2.13;;;;;;;12.57;52.20;100124.25;10529608;28;20138;-60
2023/06/02 00:59:00;;;;;;;4.60;2.50;;;;;;;12.71;52.33;100124.19;10530045;28;20154;-60
2023/06/02 01:04:02;;;;;;;3.88;2.00;;;;;;;12.69;52.15;100128.69;10549082;28;20047;-60
2023/06/02 01:09:06;;;;;;;3.30;1.98;;;;;;;12.61;52.57;100130.13;10550969;28;20042;-60
2023/06/02 01:14:09;;;;;;;3.55;2.00;;;;;;;12.59;52.50;100127.63;10545076;27;20054;-60
2023/06/02 01:19:14;;;;;;;3.95;2.30;;;;;;;12.57;52.33;100126.88;10548340;28;20582;-60
2023/06/02 01:24:17;;;;;;;5.47;2.28;;;;;;;12.62;52.55;100124.78;10549438;27;20135;-60
2023/06/02 01:29:18;;;;;;;3.58;2.22;;;;;;;12.58;52.45;100125.91;10550369;28;20582;-60
2023/06/02 01:34:29;;;;;;;6.00;2.45;;;;;;;12.52;53.06;100121.06;10548612;28;20521;-60
2023/06/02 01:39:31;;;;;;;4.13;2.30;;;;;;;12.47;52.62;100123.16;10549067;28;20622;-60
2023/06/02 01:44:35;;;;;;;5.20;2.45;;;;;;;12.38;52.86;100129.00;10530992;28;20402;-60
2023/06/02 01:49:37;;;;;;;3.90;2.30;;;;;;;12.28;53.03;100122.66;10551663;28;20480;-60
2023/06/02 01:54:38;;;;;;;3.70;2.15;;;;;;;12.10;53.29;100123.78;10516497;28;20059;-59
2023/06/02 01:59:40;;;;;;;4.10;2.17;;;;;;;11.96;53.52;100131.66;10532855;28;20077;-60
2023/06/02 02:04:43;;;;;;;3.95;2.05;;;;;;;11.87;53.75;100135.69;10530663;28;20496;-60
2023/06/02 02:09:46;;;;;;;5.30;2.30;;;;;;;11.86;53.67;100130.56;10559084;27;21473;-59
2023/06/02 02:14:50;;;;;;;3.80;2.20;;;;;;;11.74;54.29;100132.16;10561440;28;20515;-60
2023/06/02 02:19:55;;;;;;;3.72;1.90;;;;;;;11.91;54.29;100131.94;10527385;27;20051;-59
2023/06/02 02:24:57;;;;;;;4.30;2.30;;;;;;;12.00;54.16;100131.38;10563203;27;20044;-60
2023/06/02 02:30:00;;;;;;;4.90;2.50;;;;;;;11.92;54.13;100135.41;10535953;28;20545;-60
2023/06/02 02:35:03;;;;;;;4.50;2.20;;;;;;;12.02;54.11;100126.03;10543373;27;20043;-59
2023/06/02 02:40:05;;;;;;;3.50;2.22;;;;;;;12.10;53.93;100134.28;10544942;28;20131;-60
2023/06/02 02:45:08;;;;;;;4.57;2.28;;;;;;;12.03;54.08;100131.19;10562970;28;20047;-59
2023/06/02 02:50:11;;;;;;;5.18;2.53;;;;;;;12.11;54.14;100123.69;10564415;27;20516;-60
2023/06/02 02:55:15;;;;;;;4.10;2.17;;;;;;;12.23;53.83;100131.72;10544850;28;20079;-59
2023/06/02 03:00:18;;;;;;;5.97;2.83;;;;;;;12.22;53.77;100128.25;10561580;28;20051;-59
2023/06/02 03:05:20;;;;;;;3.85;2.25;;;;;;;12.16;53.96;100131.25;10573008;27;20244;-59
2023/06/02 03:10:22;;;;;;;5.00;2.30;;;;;;;12.18;54.01;100131.16;10536384;28;20047;-59
2023/06/02 03:15:27;;;;;;;3.95;2.58;;;;;;;12.31;53.62;100138.22;10571595;27;20077;-59
2023/06/02 03:20:32;;;;;;;4.18;2.35;;;;;;;12.25;53.75;100138.56;10568132;27;20054;-59
2023/06/02 03:25:34;;;;;;;4.57;2.08;;;;;;;12.18;54.00;100145.13;10535732;28;20185;-59
2023/06/02 03:30:38;;;;;;;3.90;2.40;;;;;;;12.34;53.76;100143.25;10533339;28;20043;-59
2023/06/02 03:35:40;;;;;;;4.13;2.45;;;;;;;12.49;53.57;100142.28;10534803;27;20095;-59
2023/06/02 03:40:42;;;;;;;3.60;2.22;;;;;;;12.57;53.67;100152.25;10569203;27;20064;-59
2023/06/02 03:45:45;;;;;;;4.40;2.30;;;;;;;12.70;53.52;100148.75;10537692;28;20044;-59
2023/06/02 03:50:49;;;;;;;4.20;2.20;;;;;;;12.75;53.12;100154.53;10537009;27;20089;-59
2023/06/02 03:55:51;;;;;;;8.98;2.60;;;;;;;12.79;52.88;100153.41;10536312;27;20044;-60
2023/06/02 04:00:54;;;;;;;4.43;2.20;;;;;;;13.04;52.42;100160.50;10550317;28;20050;-59
2023/06/02 04:05:57;;;;;;;4.18;2.50;;;;;;;13.20;51.82;100170.81;10570728;27;20771;-59
2023/06/02 04:11:00;;;;;;;4.50;2.30;;;;;;;13.15;51.54;100172.94;10554833;28;20053;-59
2023/06/02 04:16:03;;;;;;;3.97;2.38;;;;;;;13.22;51.11;100184.69;10536771;28;20125;-59
2023/06/02 04:21:06;;;;;;;5.10;2.38;;;;;;;13.18;50.55;100177.97;10536239;28;20048;-59
2023/06/02 04:26:10;;;;;;;3.78;2.30;;;;;;;13.18;50.21;100189.31;10534153;28;20075;-59
2023/06/02 04:31:13;;;;;;;5.43;2.45;;;;;;;13.09;49.86;100183.84;10531041;28;20086;-59
2023/06/02 04:36:20;;;;;;;4.55;2.45;;;;;;;13.16;49.64;100185.94;10533923;28;20044;-60
2023/06/02 04:41:22;;;;;;;3.50;2.22;;;;;;;13.19;49.44;100192.78;10551844;28;20147;-60
2023/06/02 04:46:27;;;;;;;6.05;2.80;;;;;;;13.11;49.43;100181.97;10532715;28;20643;-60
2023/06/02 04:51:30;;;;;;;3.88;2.30;;;;;;;13.25;49.21;100189.75;10553797;28;20502;-60
2023/06/02 04:56:34;;;;;;;3.92;2.30;;;;;;;13.19;48.90;100191.00;10534021;28;20100;-60
2023/06/02 05:01:37;;;;;;;6.10;2.58;;;;;;;13.24;48.57;100193.31;10534979;28;20058;-61
2023/06/02 05:06:39;;;;;;;3.50;2.08;;;;;;;13.20;48.29;100186.59;10535799;28;20158;-59
2023/06/02 05:11:42;;;;;;;4.93;2.58;;;;;;;13.22;48.28;100192.56;10531399;28;20050;-60
2023/06/02 05:16:46;;;;;;;7.60;2.78;;;;;;;13.47;47.85;100190.03;10523776;28;20047;-60
2023/06/02 05:21:48;;;;;;;6.43;2.80;;;;;;;13.58;47.28;100196.25;10543420;28;20047;-60
2023/06/02 05:26:52;;;;;;;4.90;2.28;;;;;;;13.54;47.59;100196.53;10529104;28;20072;-60
2023/06/02 05:31:54;;;;;;;4.20;2.05;;;;;;;13.66;47.36;100200.97;10515672;28;20043;-60
2023/06/02 05:37:00;;;;;;;4.05;2.50;;;;;;;13.77;47.26;100196.69;10528637;28;20844;-59
2023/06/02 05:42:03;;;;;;;4.50;2.30;;;;;;;13.94;46.72;100198.16;10546663;28;20044;-60
2023/06/02 05:47:07;;;;;;;6.30;2.85;;;;;;;13.61;46.86;100196.03;10572400;27;20047;-60
2023/06/02 05:52:09;;;;;;;5.13;2.65;;;;;;;13.90;46.14;100198.47;10540646;28;20039;-59
2023/06/02 05:57:13;;;;;;;3.83;2.00;;;;;;;13.94;46.18;100195.53;10532711;28;20044;-59
2023/06/02 06:02:16;;;;;;;4.13;2.40;;;;;;;14.01;46.12;100195.91;10533538;27;20503;-60
2023/06/02 06:07:19;;;;;;;5.70;2.33;;;;;;;13.83;45.84;100205.06;10536786;28;20099;-59
2023/06/02 06:12:21;;;;;;;5.80;2.42;;;;;;;14.06;45.75;100204.34;10539604;28;20054;-60
2023/06/02 06:17:23;;;;;;;4.22;2.22;;;;;;;14.25;45.29;100209.97;10534502;28;20047;-60
2023/06/02 06:22:28;;;;;;;3.35;1.92;;;;;;;14.36;44.98;100210.91;10522799;28;20546;-59
2023/06/02 06:27:30;;;;;;;4.47;2.22;;;;;;;14.39;44.42;100210.69;10535857;28;20044;-61
2023/06/02 06:32:32;;;;;;;3.38;2.10;;;;;;;14.60;44.23;100221.50;10556314;27;20124;-59
2023/06/02 06:37:37;;;;;;;4.57;2.22;;;;;;;14.35;44.25;100219.75;10554018;28;20399;-59
2023/06/02 06:42:39;;;;;;;3.83;2.00;;;;;;;14.49;43.97;100224.91;10572100;27;20538;-60
2023/06/02 06:47:47;;;;;;;4.00;2.20;;;;;;;14.35;43.54;100222.38;10536640;27;20046;-59
2023/06/02 06:52:50;;;;;;;3.90;2.15;;;;;;;14.47;43.54;100223.31;10537601;28;20047;-59
2023/06/02 06:57:52;;;;;;;3.45;2.13;;;;;;;15.22;42.80;100219.56;10532993;27;20626;-61
2023/06/02 07:02:54;;;;;;;3.38;1.90;;;;;;;15.84;41.49;100215.69;10484811;28;20056;-59
2023/06/02 07:07:58;;;;;;;3.45;2.03;;;;;;;16.25;41.02;100223.00;10465326;28;20424;-60
2023/06/02 07:13:03;;;;;;;3.28;2.13;;;;;;;17.21;38.82;100219.59;10470400;28;20041;-61
2023/06/02 07:18:05;;;;;;;8.35;2.10;;;;;;;16.63;40.17;100220.03;10466583;28;20045;-61
2023/06/02 07:23:07;;;;;;;3.78;2.13;;;;;;;17.31;37.35;100217.03;10454958;28;20048;-60
2023/06/02 07:28:09;;;;;;;3.75;2.00;;;;;;;18.25;38.04;100218.63;10468156;28;20053;-61
2023/06/02 07:33:11;;;;;;;3.28;1.95;;;;;;;20.49;35.65;100211.16;10470861;28;20049;-61
2023/06/02 07:38:13;;;;;;;4.60;1.95;;;;;;;20.19;35.22;100212.28;10468450;28;20128;-59
2023/06/02 07:43:15;;;;;;;3.70;2.00;;;;;;;20.79;35.00;100203.72;10470286;28;20408;-60
2023/06/02 07:48:17;;;;;;;5.32;1.80;;;;;;;22.02;33.41;100210.78;10468249;28;20051;-61
2023/06/02 07:53:20;;;;;;;3.95;2.15;;;;;;;22.52;32.57;100205.53;10469692;28;20064;-60
2023/06/02 07:58:22;;;;;;;3.40;1.83;;;;;;;22.16;32.30;100204.03;10457348;28;20397;-60
2023/06/02 08:03:26;;;;;;;4.30;1.83;;;;;;;21.09;32.38;100192.72;10531426;28;20162;-60
2023/06/02 08:08:29;;;;;;;4.30;2.03;;;;;;;20.27;33.67;100193.81;10545923;28;20128;-61
2023/06/02 08:13:31;;;;;;;2.97;2.00;;;;;;;19.48;33.61;100189.81;10551410;27;20105;-61
2023/06/02 08:18:33;;;;;;;3.08;1.90;;;;;;;20.69;33.06;100186.16;10548888;28;20509;-60
2023/06/02 08:23:36;;;;;;;3.17;1.85;;;;;;;21.46;32.11;100186.41;10546156;28;20476;-59
2023/06/02 08:28:38;;;;;;;3.05;1.90;;;;;;;22.49;31.55;100181.88;10523235;27;20063;-60
2023/06/02 08:33:44;;;;;;;3.20;2.15;;;;;;;23.09;29.58;100171.84;10543396;27;20047;-60
2023/06/02 08:38:51;;;;;;;3.10;1.63;;;;;;;23.11;30.11;100172.50;10546038;28;20043;-59
2023/06/02 08:43:57;;;;;;;4.63;1.92;;;;;;;22.43;30.62;100179.84;10533997;27;20079;-59
2023/06/02 08:49:02;;;;;;;1.88;1.30;;;;;;;22.31;30.32;100175.81;10542328;28;20929;-59
2023/06/02 08:54:06;;;;;;;4.13;2.22;;;;;;;22.55;29.81;100170.56;10527843;28;20051;-59
2023/06/02 08:59:08;;;;;;;4.32;1.70;;;;;;;22.16;30.67;100178.25;10544578;28;20054;-59
2023/06/02 09:04:12;;;;;;;2.67;1.65;;;;;;;22.21;30.70;100167.91;10549953;28;20055;-61
2023/06/02 09:09:16;;;;;;;2.30;1.45;;;;;;;21.82;30.68;100177.38;10544126;28;20048;-61
2023/06/02 09:14:22;;;;;;;2.30;1.65;;;;;;;21.46;30.96;100165.13;10544452;28;20047;-60
2023/06/02 09:19:24;;;;;;;3.45;1.65;;;;;;;21.43;30.84;100168.09;10545301;28;20407;-61
2023/06/02 09:24:34;;;;;;;2.97;1.92;;;;;;;20.61;30.77;100173.63;10528590;28;20043;-61
2023/06/02 09:29:38;;;;;;;2.78;1.80;;;;;;;21.06;30.68;100168.28;10522332;28;20040;-59
2023/06/02 09:34:43;;;;;;;3.38;1.73;;;;;;;20.74;30.48;100167.97;10530518;28;20075;-60
2023/06/02 09:39:49;;;;;;;3.58;1.80;;;;;;;21.66;30.85;100153.31;10542700;28;20062;-60
2023/06/02 09:45:08;;;;;;;4.18;1.80;;;;;;;21.68;29.45;100157.47;10547386;28;20062;-59
2023/06/02 09:50:31;;;;;;;2.33;1.50;;;;;;;21.56;30.19;100153.38;10526293;28;20054;-60
2023/06/02 09:55:38;;;;;;;3.85;1.70;;;;;;;22.01;30.32;100152.31;10546084;28;20059;-59
2023/06/02 10:00:40;;;;;;;3.13;1.80;;;;;;;21.85;30.19;100158.41;10540739;28;20989;-59
2023/06/02 10:05:56;;;;;;;2.85;1.85;;;;;;;21.49;29.20;100164.81;10540745;28;21082;-60
2023/06/02 10:11:04;;;;;;;5.07;1.80;;;;;;;21.16;30.63;100149.56;10546267;28;20046;-60
2023/06/02 10:16:25;;;;;;;3.05;1.88;;;;;;;21.26;30.37;100155.63;10544203;28;20066;-59
2023/06/02 10:21:43;;;;;;;2.78;1.45;;;;;;;21.02;30.76;100154.44;10547520;28;20044;-59
2023/06/02 10:27:06;;;;;;;3.72;1.75;;;;;;;21.02;30.78;100143.81;10544572;28;20055;-60
2023/06/02 10:32:33;;;;;;;3.58;1.90;;;;;;;21.24;30.67;100168.25;10554440;28;20051;-59
2023/06/02 10:37:37;;;;;;;2.35;1.60;;;;;;;20.89;31.39;100148.66;10517276;28;20051;-59
2023/06/02 10:43:11;;;;;;;4.20;1.63;;;;;;;20.25;32.44;100154.09;10555745;28;20048;-60
2023/06/02 10:48:39;;;;;;;2.92;1.80;;;;;;;19.83;32.93;100146.72;10526837;27;20047;-59
2023/06/02 10:54:02;;;;;;;2.60;1.73;;;;;;;18.79;33.53;100153.81;10551910;28;20048;-59
2023/06/02 10:59:05;;;;;;;3.83;1.90;;;;;;;18.80;33.68;100145.72;10527656;28;20044;-59
2023/06/02 11:04:33;;;;;;;2.85;1.80;;;;;;;18.84;34.50;100144.47;10553499;28;20861;-59
2023/06/02 11:09:35;;;;;;;2.92;1.88;;;;;;;18.97;34.10;100137.06;10548204;28;20387;-60
2023/06/02 11:14:59;;;;;;;4.82;1.83;;;;;;;19.18;33.91;100128.97;10551793;28;20046;-60
2023/06/02 11:20:04;;;;;;;2.65;1.70;;;;;;;19.32;33.85;100131.19;10548557;28;20050;-60
2023/06/02 11:25:08;;;;;;;2.08;1.45;;;;;;;19.55;33.75;100129.06;10552748;28;20484;-60
2023/06/02 11:30:14;;;;;;;2.47;1.60;;;;;;;19.50;33.79;100116.25;10550512;28;20043;-60
2023/06/02 11:35:20;;;;;;;5.45;1.80;;;;;;;20.14;34.39;100119.78;10551188;28;20143;-60
2023/06/02 11:40:22;;;;;;;3.33;1.90;;;;;;;19.84;33.01;100112.09;10531078;28;20458;-60
2023/06/02 11:45:28;;;;;;;2.00;1.27;;;;;;;19.90;33.59;100111.50;10549462;28;20119;-60
2023/06/02 11:50:30;;;;;;;2.92;1.60;;;;;;;19.80;33.37;100109.84;10541877;27;20487;-60
2023/06/02 11:55:32;;;;;;;1.90;1.40;;;;;;;19.72;33.21;100112.38;10544977;27;20511;-60
2023/06/02 12:00:35;;;;;;;3.60;1.70;;;;;;;19.79;33.22;100114.31;10531156;28;20216;-61
2023/06/02 12:05:37;;;;;;;2.22;1.50;;;;;;;20.05;32.94;100095.94;10529573;28;20456;-60
2023/06/02 12:10:40;;;;;;;2.28;1.48;;;;;;;20.27;33.26;100096.34;10549339;28;20067;-60
2023/06/02 12:15:42;;;;;;;3.08;1.65;;;;;;;20.41;32.58;100096.81;10540269;28;20098;-60
2023/06/02 12:20:44;;;;;;;2.35;1.50;;;;;;;20.77;32.93;100095.88;10547049;27;20047;-60
2023/06/02 12:25:56;;;;;;;2.55;1.40;;;;;;;20.64;33.91;100092.78;10531819;28;20043;-60
2023/06/02 12:30:58;;;;;;;4.57;1.70;;;;;;;20.51;32.59;100092.28;10551647;28;20047;-60
2023/06/02 12:36:00;;;;;;;2.53;1.50;;;;;;;20.24;32.55;100082.53;10521973;27;20075;-60
2023/06/02 12:41:02;;;;;;;2.47;1.60;;;;;;;20.43;33.16;100086.88;10528713;28;20078;-60
2023/06/02 12:46:06;;;;;;;2.90;1.60;;;;;;;20.66;32.91;100088.16;10549111;28;20460;-60
2023/06/02 12:51:08;;;;;;;2.85;1.42;;;;;;;20.36;32.64;100081.31;10529462;28;20039;-60
2023/06/02 12:56:11;;;;;;;4.22;1.77;;;;;;;20.39;32.15;100083.69;10549471;28;20051;-60
2023/06/02 13:01:13;;;;;;;4.25;1.50;;;;;;;20.78;32.17;100094.91;10550719;28;20089;-59
2023/06/02 13:06:34;;;;;;;4.43;1.60;;;;;;;20.49;31.21;100079.16;10511414;28;20459;-60
2023/06/02 13:11:37;;;;;;;4.53;1.67;;;;;;;20.64;31.61;100088.28;10496119;28;20128;-60
2023/06/02 13:16:40;;;;;;;3.20;1.67;;;;;;;20.49;31.08;100092.44;10542342;28;20047;-60
2023/06/02 13:21:42;;;;;;;2.30;1.40;;;;;;;20.65;31.27;100097.94;10548650;28;20051;-61
2023/06/02 13:26:45;;;;;;;4.18;1.73;;;;;;;20.75;30.52;100088.06;10543428;28;20054;-60
2023/06/02 13:31:47;;;;;;;3.63;1.90;;;;;;;20.51;31.13;100087.81;10541747;27;20130;-60
2023/06/02 13:36:50;;;;;;;3.95;2.00;;;;;;;20.52;30.74;100073.53;10542884;28;20058;-59
2023/06/02 13:41:52;;;;;;;2.47;1.33;;;;;;;20.80;30.43;100080.47;10548040;28;20048;-59
2023/06/02 13:46:54;;;;;;;4.57;1.50;;;;;;;21.11;30.08;100070.22;10544622;28;20054;-60
2023/06/02 13:51:56;;;;;;;3.15;1.50;;;;;;;20.94;29.37;100066.63;10540287;28;20043;-60
2023/06/02 13:56:57;;;;;;;2.35;1.52;;;;;;;20.80;29.63;100075.16;10533316;28;20043;-60
2023/06/02 14:02:00;;;;;;;4.40;1.90;;;;;;;20.94;29.56;100063.97;10541768;28;20056;-60
2023/06/02 14:07:02;;;;;;;3.80;1.60;;;;;;;21.02;29.43;100071.16;10547195;27;20043;-60
2023/06/02 14:12:04;;;;;;;2.70;1.50;;;;;;;20.50;29.39;100072.84;10548411;27;20084;-59
2023/06/02 14:17:06;;;;;;;3.80;1.50;;;;;;;20.93;29.15;100067.59;10544154;27;20064;-60
2023/06/02 14:22:08;;;;;;;4.82;1.80;;;;;;;21.29;29.39;100064.88;10535429;28;20043;-59
2023/06/02 14:27:10;;;;;;;4.97;1.67;;;;;;;21.34;29.08;100060.78;10541104;27;20051;-60
2023/06/02 14:32:12;;;;;;;3.05;1.58;;;;;;;21.15;29.12;100060.13;10549814;27;20515;-60
2023/06/02 14:37:15;;;;;;;2.95;1.55;;;;;;;21.38;27.96;100056.81;10547712;27;20047;-60
2023/06/02 14:42:17;;;;;;;3.88;1.92;;;;;;;21.03;27.06;100060.38;10549558;27;20048;-60
2023/06/02 14:47:19;;;;;;;4.10;1.88;;;;;;;21.14;27.29;100056.63;10531531;28;20044;-60
2023/06/02 14:52:21;;;;;;;5.38;1.40;;;;;;;21.08;27.68;100057.25;10552450;28;20132;-60
2023/06/02 14:57:23;;;;;;;2.65;1.40;;;;;;;21.04;26.33;100053.25;10521001;27;20047;-60
2023/06/02 15:02:25;;;;;;;3.50;1.45;;;;;;;20.81;26.20;100060.03;10546524;27;20185;-60
2023/06/02 15:07:28;;;;;;;2.67;1.45;;;;;;;21.12;27.80;100049.78;10548301;27;20043;-60
2023/06/02 15:12:31;;;;;;;3.17;1.55;;;;;;;21.31;27.80;100038.97;10550733;27;20043;-60
2023/06/02 15:17:33;;;;;;;3.25;1.42;;;;;;;21.45;28.02;100028.59;10544924;27;20812;-60
2023/06/02 15:22:35;;;;;;;6.85;1.60;;;;;;;21.62;27.56;100037.50;10549295;27;20047;-59
2023/06/02 15:27:38;;;;;;;1.77;1.15;;;;;;;21.14;26.93;100023.88;10539043;27;20039;-60
2023/06/02 15:32:40;;;;;;;4.70;1.50;;;;;;;21.14;26.61;100023.88;10528639;28;20047;-59
2023/06/02 15:37:42;;;;;;;3.50;1.52;;;;;;;20.96;26.97;100018.63;10547404;28;20039;-60
2023/06/02 15:42:44;;;;;;;2.38;1.25;;;;;;;20.87;27.26;100022.19;10548645;27;20718;-60
2023/06/02 15:47:46;;;;;;;3.95;1.58;;;;;;;20.87;27.70;100016.88;10562153;27;20070;-60
2023/06/02 15:52:48;;;;;;;3.60;1.20;;;;;;;21.21;27.82;100008.97;10548681;28;20047;-60
2023/06/02 15:57:58;;;;;;;2.70;1.30;;;;;;;21.38;28.68;100006.25;10542197;28;20043;-60
2023/06/02 16:03:02;;;;;;;3.15;1.50;;;;;;;20.88;28.41;100014.09;10543836;27;20040;-60
2023/06/02 16:08:04;;;;;;;2.78;1.63;;;;;;;21.18;28.50;100009.28;10538840;27;20169;-59
2023/06/02 16:13:06;;;;;;;2.42;1.20;;;;;;;21.25;28.61;100007.66;10545532;28;20073;-60
2023/06/02 16:18:08;;;;;;;2.63;1.40;;;;;;;21.38;28.77;100002.75;10538801;28;20039;-59
2023/06/02 16:23:10;;;;;;;5.45;1.67;;;;;;;21.58;29.32;99994.38;10539126;27;20735;-60
2023/06/02 16:28:12;;;;;;;2.20;1.30;;;;;;;21.52;29.74;99997.69;10538566;28;20043;-60
2023/06/02 16:33:14;;;;;;;3.10;1.20;;;;;;;21.38;30.04;100003.59;10532453;28;20028;-60
2023/06/02 16:38:16;;;;;;;2.38;1.30;;;;;;;21.53;29.69;99998.53;10544543;27;20105;-59
2023/06/02 16:43:19;;;;;;;3.60;1.70;;;;;;;21.59;30.12;100005.88;10550100;27;20063;-59
2023/06/02 16:48:21;;;;;;;3.17;1.60;;;;;;;21.07;30.83;100019.19;10529077;28;20323;-58
2023/06/02 16:53:26;;;;;;;3.97;1.55;;;;;;;20.96;31.20;99997.34;10544578;28;20054;-59
2023/06/02 16:58:28;;;;;;;4.30;1.60;;;;;;;20.90;31.46;100005.94;10542582;27;20051;-59
2023/06/02 17:03:30;;;;;;;3.92;1.52;;;;;;;20.98;31.54;100003.34;10472475;28;20748;-59
2023/06/02 17:08:32;;;;;;;3.58;1.48;;;;;;;21.14;31.79;99998.13;10455151;28;20059;-59
2023/06/02 17:13:34;;;;;;;2.65;1.40;;;;;;;20.86;32.02;100007.25;10456362;28;20075;-59
2023/06/02 17:18:37;;;;;;;2.53;1.40;;;;;;;20.69;32.38;99998.31;10454446;28;20057;-60
2023/06/02 17:23:39;;;;;;;3.90;1.40;;;;;;;20.80;32.20;100000.72;10454380;28;20041;-60
2023/06/02 17:28:41;;;;;;;2.28;1.27;;;;;;;20.51;32.21;100009.91;10446802;28;20044;-59
2023/06/02 17:33:43;;;;;;;3.00;1.45;;;;;;;20.22;32.45;100015.44;10454090;28;20040;-59
2023/06/02 17:38:45;;;;;;;3.13;1.30;;;;;;;20.13;33.18;100022.50;10451627;28;20051;-59
2023/06/02 17:43:50;;;;;;;3.20;1.55;;;;;;;20.27;33.39;100023.81;10459701;28;20049;-59
2023/06/02 17:48:52;;;;;;;2.33;1.50;;;;;;;20.19;33.58;100029.84;10456344;28;20354;-59
2023/06/02 17:53:54;;;;;;;4.15;1.30;;;;;;;20.08;33.59;100023.94;10461347;28;20102;-59
2023/06/02 17:58:58;;;;;;;2.63;1.50;;;;;;;19.82;33.82;100037.09;10457574;28;20052;-59
2023/06/02 18:04:00;;;;;;;2.03;1.20;;;;;;;19.62;33.97;100038.13;10521297;27;20086;-58
2023/06/02 18:09:02;;;;;;;2.42;1.27;;;;;;;19.28;34.78;100045.78;10494879;28;20118;-59
2023/06/02 18:14:05;;;;;;;2.88;1.40;;;;;;;19.18;34.54;100049.44;10500388;28;20036;-58
2023/06/02 18:19:07;;;;;;;2.53;1.20;;;;;;;19.07;35.04;100047.81;10496818;28;20512;-59
2023/06/02 18:24:09;;;;;;;7.35;2.13;;;;;;;18.97;34.91;100051.41;10498822;28;20508;-58
2023/06/02 18:29:11;;;;;;;2.13;1.30;;;;;;;18.86;35.01;100057.72;10493369;28;20053;-58
2023/06/02 18:34:13;;;;;;;3.22;1.40;;;;;;;18.58;35.50;100066.50;10496646;28;20052;-58
2023/06/02 18:39:14;;;;;;;8.50;1.50;;;;;;;18.54;35.37;100067.75;10492260;28;20052;-59
2023/06/02 18:44:16;;;;;;;2.53;1.30;;;;;;;18.40;36.03;100062.88;10504349;28;20044;-59
2023/06/02 18:49:18;;;;;;;3.30;1.48;;;;;;;18.24;36.21;100073.16;10495078;28;20563;-59
2023/06/02 18:54:20;;;;;;;3.22;1.48;;;;;;;18.06;36.41;100069.44;10507023;28;20043;-59
2023/06/02 18:59:23;;;;;;;4.90;1.40;;;;;;;17.75;37.23;100085.38;10507863;28;20052;-58
2023/06/02 19:04:24;;;;;;;3.00;1.55;;;;;;;17.77;37.41;100083.44;10550029;27;20050;-58
2023/06/02 19:09:26;;;;;;;2.22;1.17;;;;;;;17.76;37.01;100083.56;10545131;27;20047;-57
2023/06/02 19:14:28;;;;;;;1.58;1.10;;;;;;;17.53;37.96;100088.19;10552609;27;20047;-58
2023/06/02 19:19:30;;;;;;;2.30;1.20;;;;;;;17.46;37.51;100086.22;10545794;28;20039;-58
2023/06/02 19:24:32;;;;;;;3.08;1.40;;;;;;;17.38;37.76;100088.69;10546097;28;20056;-58
2023/06/02 19:29:34;;;;;;;3.55;1.58;;;;;;;17.37;37.83;100101.06;10549465;27;20040;-58
2023/06/02 19:34:36;;;;;;;3.97;1.50;;;;;;;17.22;38.26;100114.72;10548794;27;20170;-57
2023/06/02 19:39:38;;;;;;;4.15;1.40;;;;;;;17.18;38.50;100122.03;10534642;28;20174;-58
2023/06/02 19:44:45;;;;;;;2.25;1.10;;;;;;;17.07;38.43;100129.19;10553400;27;20527;-58
2023/06/02 19:49:48;;;;;;;2.33;1.20;;;;;;;16.96;38.64;100138.88;10551583;28;20043;-57
2023/06/02 19:54:50;;;;;;;2.08;1.30;;;;;;;16.89;39.04;100134.22;10533385;28;20040;-57
2023/06/02 19:59:52;;;;;;;2.40;1.35;;;;;;;16.75;39.46;100134.53;10548119;27;20470;-57
2023/06/02 20:04:54;;;;;;;2.70;1.30;;;;;;;16.56;39.68;100140.47;10546337;28;20576;-57
2023/06/02 20:09:56;;;;;;;1.80;1.15;;;;;;;16.57;39.72;100143.94;10553692;28;20043;-57
2023/06/02 20:14:58;;;;;;;2.45;1.40;;;;;;;16.58;39.86;100146.44;10532594;27;20044;-57
2023/06/02 20:20:00;;;;;;;3.40;1.40;;;;;;;16.39;40.82;100146.22;10552038;28;20044;-57
2023/06/02 20:25:02;;;;;;;2.80;1.35;;;;;;;16.28;40.32;100148.91;10544042;27;20055;-58
2023/06/02 20:30:05;;;;;;;3.95;1.40;;;;;;;16.21;41.05;100158.25;10543981;28;20063;-57
2023/06/02 20:35:08;;;;;;;2.85;1.50;;;;;;;16.13;40.73;100155.38;10534464;28;20052;-58
2023/06/02 20:40:10;;;;;;;2.90;1.40;;;;;;;15.99;41.13;100166.19;10526255;28;20040;-59
2023/06/02 20:45:14;;;;;;;2.03;1.38;;;;;;;15.92;41.41;100167.59;10549568;27;20567;-59
2023/06/02 20:50:16;;;;;;;3.10;1.45;;;;;;;15.96;41.21;100169.88;10543637;28;20066;-59
2023/06/02 20:55:19;;;;;;;2.05;1.30;;;;;;;15.98;41.40;100173.25;10529511;28;20048;-59
2023/06/02 21:00:23;;;;;;;1.92;1.35;;;;;;;15.86;41.74;100174.19;10542948;28;20058;-59
2023/06/02 21:05:26;;;;;;;2.95;1.40;;;;;;;15.67;41.91;100167.84;10547738;27;20063;-59
2023/06/02 21:10:28;;;;;;;2.97;1.58;;;;;;;15.60;42.08;100175.38;10545245;27;20058;-58
2023/06/02 21:15:31;;;;;;;2.80;1.40;;;;;;;15.34;42.71;100176.47;10528559;28;20507;-58
2023/06/02 21:20:34;;;;;;;2.15;1.30;;;;;;;15.39;42.81;100179.59;10546102;28;20047;-58
2023/06/02 21:25:36;;;;;;;3.63;1.45;;;;;;;15.30;42.89;100196.13;10546089;27;20121;-58
2023/06/02 21:30:38;;;;;;;2.60;1.40;;;;;;;15.27;43.08;100199.81;10541566;28;20616;-59
2023/06/02 21:35:40;;;;;;;2.85;1.60;;;;;;;15.23;43.24;100194.88;10546059;27;20392;-58
2023/06/02 21:40:41;;;;;;;3.72;1.73;;;;;;;15.10;43.40;100194.13;10545091;28;20051;-59
2023/06/02 21:45:44;;;;;;;5.35;1.65;;;;;;;15.04;43.45;100191.94;10544778;28;20059;-59
2023/06/02 21:50:46;;;;;;;3.22;1.40;;;;;;;14.95;43.61;100209.28;10541561;28;20399;-59
2023/06/02 21:55:48;;;;;;;4.55;1.58;;;;;;;14.86;44.23;100202.03;10547932;28;20044;-59
2023/06/02 22:00:50;;;;;;;3.10;1.70;;;;;;;14.39;44.80;100201.97;10540767;28;20043;-59
2023/06/02 22:05:51;;;;;;;3.17;1.50;;;;;;;14.02;45.31;100214.22;10538693;28;20093;-59
2023/06/02 22:10:54;;;;;;;5.10;1.63;;;;;;;13.87;45.74;100215.28;10536518;28;20055;-59
2023/06/02 22:15:56;;;;;;;6.03;1.55;;;;;;;13.60;46.26;100211.91;10540514;28;20064;-59
2023/06/02 22:20:58;;;;;;;8.40;1.83;;;;;;;13.46;46.50;100207.56;10534530;28;20046;-59
2023/06/02 22:26:00;;;;;;;6.15;1.80;;;;;;;13.45;46.82;100205.91;10546497;28;20141;-59
2023/06/02 22:31:03;;;;;;;3.00;1.80;;;;;;;13.38;47.21;100214.25;10546963;27;20044;-59
2023/06/02 22:36:05;;;;;;;4.03;1.70;;;;;;;13.24;47.18;100209.06;10535508;28;20488;-59
2023/06/02 22:41:08;;;;;;;4.00;1.70;;;;;;;13.16;47.49;100206.13;10551441;28;20120;-60
2023/06/02 22:46:10;;;;;;;3.90;1.55;;;;;;;13.14;47.88;100205.38;10520265;28;20585;-59
2023/06/02 22:51:12;;;;;;;5.15;1.95;;;;;;;13.19;47.94;100211.19;10550713;28;20124;-60
2023/06/02 22:56:14;;;;;;;3.17;1.70;;;;;;;13.33;47.96;100211.09;10554605;28;20058;-59
2023/06/02 23:01:16;;;;;;;3.25;1.67;;;;;;;13.16;47.92;100209.59;10530082;28;20040;-59
2023/06/02 23:06:18;;;;;;;6.53;1.90;;;;;;;12.93;48.60;100216.34;10553022;27;20480;-59
2023/06/02 23:11:20;;;;;;;3.70;1.80;;;;;;;12.65;49.10;100216.44;10549253;28;20043;-59
2023/06/02 23:16:22;;;;;;;4.97;1.70;;;;;;;12.65;49.17;100216.44;10533186;28;20051;-59